sensor_id;sensor_type;location;lat;lon;timestamp;P1;durP1;ratioP1;P2;durP2;ratioP2
58758;SDS011;46777;47.482;19.054;2022-10-31T00:01:36;63.22;;;51.10;;
58758;SDS011;46777;47.482;19.054;2022-10-31T00:04:20;64.18;;;53.03;;
58758;SDS011;46777;47.482;19.054;2022-10-31T00:07:05;57.28;;;48.97;;
58758;SDS011;46777;47.482;19.054;2022-10-31T00:09:49;59.08;;;47.42;;
58758;SDS011;46777;47.482;19.054;2022-10-31T00:12:33;64.00;;;52.22;;
58758;SDS011;46777;47.482;19.054;2022-10-31T00:15:17;65.28;;;52.03;;
58758;SDS011;46777;47.482;19.054;2022-10-31T00:18:02;62.65;;;51.15;;
58758;SDS011;46777;47.482;19.054;2022-10-31T00:20:46;64.03;;;51.20;;
58758;SDS011;46777;47.482;19.054;2022-10-31T00:23:31;62.92;;;51.20;;
58758;SDS011;46777;47.482;19.054;2022-10-31T00:26:15;62.83;;;52.55;;
58758;SDS011;46777;47.482;19.054;2022-10-31T00:28:59;63.25;;;52.70;;
58758;SDS011;46777;47.482;19.054;2022-10-31T00:31:44;58.55;;;49.47;;
58758;SDS011;46777;47.482;19.054;2022-10-31T00:34:28;61.30;;;50.72;;
58758;SDS011;46777;47.482;19.054;2022-10-31T00:37:12;63.67;;;50.97;;
58758;SDS011;46777;47.482;19.054;2022-10-31T00:39:57;66.10;;;50.38;;
58758;SDS011;46777;47.482;19.054;2022-10-31T00:42:41;64.50;;;53.25;;
58758;SDS011;46777;47.482;19.054;2022-10-31T00:45:25;64.15;;;51.75;;
58758;SDS011;46777;47.482;19.054;2022-10-31T00:48:10;68.03;;;53.50;;
58758;SDS011;46777;47.482;19.054;2022-10-31T00:50:54;65.20;;;53.63;;
58758;SDS011;46777;47.482;19.054;2022-10-31T00:53:39;66.55;;;52.50;;
58758;SDS011;46777;47.482;19.054;2022-10-31T00:56:23;71.65;;;53.17;;
58758;SDS011;46777;47.482;19.054;2022-10-31T00:59:07;66.15;;;51.05;;
58758;SDS011;46777;47.482;19.054;2022-10-31T01:01:51;63.30;;;50.35;;
58758;SDS011;46777;47.482;19.054;2022-10-31T01:04:36;64.43;;;49.60;;
58758;SDS011;46777;47.482;19.054;2022-10-31T01:07:20;66.35;;;51.08;;
58758;SDS011;46777;47.482;19.054;2022-10-31T01:10:04;60.75;;;51.00;;
58758;SDS011;46777;47.482;19.054;2022-10-31T01:12:49;66.70;;;52.47;;
58758;SDS011;46777;47.482;19.054;2022-10-31T01:15:33;61.95;;;49.78;;
58758;SDS011;46777;47.482;19.054;2022-10-31T01:18:18;63.00;;;49.75;;
58758;SDS011;46777;47.482;19.054;2022-10-31T01:23:50;62.65;;;47.72;;
58758;SDS011;46777;47.482;19.054;2022-10-31T01:26:34;60.88;;;48.28;;
58758;SDS011;46777;47.482;19.054;2022-10-31T01:29:18;58.25;;;46.83;;
58758;SDS011;46777;47.482;19.054;2022-10-31T01:32:03;53.95;;;45.28;;
58758;SDS011;46777;47.482;19.054;2022-10-31T01:34:47;54.95;;;45.63;;
58758;SDS011;46777;47.482;19.054;2022-10-31T01:37:31;56.38;;;45.03;;
58758;SDS011;46777;47.482;19.054;2022-10-31T01:40:16;53.33;;;45.47;;
58758;SDS011;46777;47.482;19.054;2022-10-31T01:43:00;55.75;;;45.40;;
58758;SDS011;46777;47.482;19.054;2022-10-31T01:45:46;51.10;;;42.38;;
58758;SDS011;46777;47.482;19.054;2022-10-31T01:48:33;49.70;;;42.33;;
58758;SDS011;46777;47.482;19.054;2022-10-31T01:51:17;46.28;;;40.85;;
58758;SDS011;46777;47.482;19.054;2022-10-31T01:54:06;47.25;;;39.55;;
58758;SDS011;46777;47.482;19.054;2022-10-31T01:56:52;43.47;;;38.75;;
58758;SDS011;46777;47.482;19.054;2022-10-31T01:59:40;46.35;;;40.13;;
58758;SDS011;46777;47.482;19.054;2022-10-31T02:02:26;42.85;;;38.25;;
58758;SDS011;46777;47.482;19.054;2022-10-31T02:05:14;43.08;;;38.45;;
58758;SDS011;46777;47.482;19.054;2022-10-31T02:08:13;40.92;;;36.58;;
58758;SDS011;46777;47.482;19.054;2022-10-31T02:10:58;42.75;;;38.15;;
58758;SDS011;46777;47.482;19.054;2022-10-31T02:13:43;39.65;;;35.60;;
58758;SDS011;46777;47.482;19.054;2022-10-31T02:16:27;39.35;;;35.17;;
58758;SDS011;46777;47.482;19.054;2022-10-31T02:19:12;37.92;;;33.90;;
58758;SDS011;46777;47.482;19.054;2022-10-31T02:22:06;36.88;;;33.15;;
58758;SDS011;46777;47.482;19.054;2022-10-31T02:30:41;35.88;;;32.33;;
58758;SDS011;46777;47.482;19.054;2022-10-31T02:33:49;33.55;;;30.35;;
58758;SDS011;46777;47.482;19.054;2022-10-31T02:39:23;31.35;;;28.55;;
58758;SDS011;46777;47.482;19.054;2022-10-31T02:42:13;32.88;;;29.85;;
58758;SDS011;46777;47.482;19.054;2022-10-31T02:45:00;32.63;;;29.42;;
58758;SDS011;46777;47.482;19.054;2022-10-31T02:47:49;32.00;;;29.00;;
58758;SDS011;46777;47.482;19.054;2022-10-31T02:50:34;34.08;;;30.80;;
58758;SDS011;46777;47.482;19.054;2022-10-31T02:53:20;32.55;;;29.45;;
58758;SDS011;46777;47.482;19.054;2022-10-31T02:56:06;32.90;;;29.77;;
58758;SDS011;46777;47.482;19.054;2022-10-31T02:58:54;32.78;;;29.80;;
58758;SDS011;46777;47.482;19.054;2022-10-31T03:01:53;34.78;;;31.38;;
58758;SDS011;46777;47.482;19.054;2022-10-31T03:04:48;33.33;;;30.05;;
58758;SDS011;46777;47.482;19.054;2022-10-31T03:08:01;33.53;;;30.25;;
58758;SDS011;46777;47.482;19.054;2022-10-31T03:10:52;34.00;;;30.52;;
58758;SDS011;46777;47.482;19.054;2022-10-31T03:13:49;35.35;;;31.77;;
58758;SDS011;46777;47.482;19.054;2022-10-31T03:22:22;34.70;;;31.35;;
58758;SDS011;46777;47.482;19.054;2022-10-31T03:25:07;34.00;;;30.70;;
58758;SDS011;46777;47.482;19.054;2022-10-31T03:27:53;37.35;;;33.42;;
58758;SDS011;46777;47.482;19.054;2022-10-31T03:30:38;38.10;;;33.63;;
58758;SDS011;46777;47.482;19.054;2022-10-31T03:33:26;36.10;;;32.38;;
58758;SDS011;46777;47.482;19.054;2022-10-31T03:36:11;36.05;;;32.28;;
58758;SDS011;46777;47.482;19.054;2022-10-31T03:38:56;36.85;;;33.15;;
58758;SDS011;46777;47.482;19.054;2022-10-31T03:41:42;40.35;;;33.60;;
58758;SDS011;46777;47.482;19.054;2022-10-31T03:44:27;39.72;;;35.45;;
58758;SDS011;46777;47.482;19.054;2022-10-31T03:47:12;39.70;;;35.13;;
58758;SDS011;46777;47.482;19.054;2022-10-31T03:49:57;39.55;;;34.85;;
58758;SDS011;46777;47.482;19.054;2022-10-31T03:55:28;42.92;;;37.08;;
58758;SDS011;46777;47.482;19.054;2022-10-31T03:58:32;41.10;;;35.20;;
58758;SDS011;46777;47.482;19.054;2022-10-31T04:01:18;42.17;;;35.88;;
58758;SDS011;46777;47.482;19.054;2022-10-31T04:04:03;41.38;;;36.90;;
58758;SDS011;46777;47.482;19.054;2022-10-31T04:06:49;39.85;;;35.55;;
58758;SDS011;46777;47.482;19.054;2022-10-31T04:09:35;39.55;;;35.20;;
58758;SDS011;46777;47.482;19.054;2022-10-31T04:12:20;40.38;;;35.92;;
58758;SDS011;46777;47.482;19.054;2022-10-31T04:15:07;38.08;;;34.03;;
58758;SDS011;46777;47.482;19.054;2022-10-31T04:17:53;40.53;;;34.55;;
58758;SDS011;46777;47.482;19.054;2022-10-31T04:20:40;38.97;;;34.75;;
58758;SDS011;46777;47.482;19.054;2022-10-31T04:23:25;42.28;;;35.17;;
58758;SDS011;46777;47.482;19.054;2022-10-31T04:26:11;41.30;;;35.33;;
58758;SDS011;46777;47.482;19.054;2022-10-31T04:28:55;42.63;;;36.17;;
58758;SDS011;46777;47.482;19.054;2022-10-31T04:31:40;41.08;;;36.85;;
58758;SDS011;46777;47.482;19.054;2022-10-31T04:34:24;42.75;;;37.53;;
58758;SDS011;46777;47.482;19.054;2022-10-31T04:37:08;43.50;;;38.30;;
58758;SDS011;46777;47.482;19.054;2022-10-31T04:39:52;43.40;;;37.17;;
58758;SDS011;46777;47.482;19.054;2022-10-31T04:42:36;46.30;;;37.30;;
58758;SDS011;46777;47.482;19.054;2022-10-31T04:45:21;39.83;;;35.30;;
58758;SDS011;46777;47.482;19.054;2022-10-31T04:48:05;42.83;;;36.85;;
58758;SDS011;46777;47.482;19.054;2022-10-31T04:50:49;40.72;;;35.40;;
58758;SDS011;46777;47.482;19.054;2022-10-31T04:53:33;41.50;;;35.47;;
58758;SDS011;46777;47.482;19.054;2022-10-31T04:56:17;41.55;;;36.35;;
58758;SDS011;46777;47.482;19.054;2022-10-31T04:59:02;41.78;;;34.88;;
58758;SDS011;46777;47.482;19.054;2022-10-31T05:01:46;40.03;;;35.70;;
58758;SDS011;46777;47.482;19.054;2022-10-31T05:04:30;41.35;;;36.95;;
58758;SDS011;46777;47.482;19.054;2022-10-31T05:07:14;40.85;;;35.83;;
58758;SDS011;46777;47.482;19.054;2022-10-31T05:09:59;39.60;;;35.20;;
58758;SDS011;46777;47.482;19.054;2022-10-31T05:12:47;40.53;;;36.13;;
58758;SDS011;46777;47.482;19.054;2022-10-31T05:15:32;39.58;;;35.28;;
58758;SDS011;46777;47.482;19.054;2022-10-31T05:18:16;41.85;;;36.58;;
58758;SDS011;46777;47.482;19.054;2022-10-31T05:21:01;40.55;;;36.28;;
58758;SDS011;46777;47.482;19.054;2022-10-31T05:23:45;39.08;;;34.85;;
58758;SDS011;46777;47.482;19.054;2022-10-31T05:26:29;39.50;;;35.22;;
58758;SDS011;46777;47.482;19.054;2022-10-31T05:29:13;38.03;;;33.80;;
58758;SDS011;46777;47.482;19.054;2022-10-31T05:31:57;36.75;;;32.88;;
58758;SDS011;46777;47.482;19.054;2022-10-31T05:34:42;38.65;;;34.55;;
58758;SDS011;46777;47.482;19.054;2022-10-31T05:37:26;38.08;;;33.97;;
58758;SDS011;46777;47.482;19.054;2022-10-31T05:40:11;36.35;;;32.40;;
58758;SDS011;46777;47.482;19.054;2022-10-31T05:42:56;38.67;;;34.58;;
58758;SDS011;46777;47.482;19.054;2022-10-31T05:45:40;39.67;;;34.42;;
58758;SDS011;46777;47.482;19.054;2022-10-31T05:48:24;35.95;;;32.22;;
58758;SDS011;46777;47.482;19.054;2022-10-31T05:51:08;38.08;;;34.03;;
58758;SDS011;46777;47.482;19.054;2022-10-31T05:53:53;39.92;;;35.28;;
58758;SDS011;46777;47.482;19.054;2022-10-31T05:56:37;37.17;;;33.17;;
58758;SDS011;46777;47.482;19.054;2022-10-31T05:59:21;38.95;;;34.85;;
58758;SDS011;46777;47.482;19.054;2022-10-31T06:02:05;39.60;;;35.38;;
58758;SDS011;46777;47.482;19.054;2022-10-31T06:04:50;38.95;;;34.53;;
58758;SDS011;46777;47.482;19.054;2022-10-31T06:07:34;37.95;;;33.17;;
58758;SDS011;46777;47.482;19.054;2022-10-31T06:10:19;38.53;;;34.35;;
58758;SDS011;46777;47.482;19.054;2022-10-31T06:13:05;37.58;;;33.65;;
58758;SDS011;46777;47.482;19.054;2022-10-31T06:15:50;36.75;;;32.78;;
58758;SDS011;46777;47.482;19.054;2022-10-31T06:18:34;38.08;;;33.70;;
58758;SDS011;46777;47.482;19.054;2022-10-31T06:21:19;39.25;;;34.97;;
58758;SDS011;46777;47.482;19.054;2022-10-31T06:24:03;37.90;;;33.85;;
58758;SDS011;46777;47.482;19.054;2022-10-31T06:26:47;39.70;;;35.28;;
58758;SDS011;46777;47.482;19.054;2022-10-31T06:29:32;36.22;;;32.47;;
58758;SDS011;46777;47.482;19.054;2022-10-31T06:32:16;41.60;;;34.20;;
58758;SDS011;46777;47.482;19.054;2022-10-31T06:35:00;39.78;;;34.45;;
58758;SDS011;46777;47.482;19.054;2022-10-31T06:37:52;37.10;;;33.20;;
58758;SDS011;46777;47.482;19.054;2022-10-31T06:40:36;37.33;;;33.40;;
58758;SDS011;46777;47.482;19.054;2022-10-31T06:43:21;37.95;;;33.88;;
58758;SDS011;46777;47.482;19.054;2022-10-31T06:46:05;35.72;;;31.92;;
58758;SDS011;46777;47.482;19.054;2022-10-31T06:48:49;37.17;;;33.15;;
58758;SDS011;46777;47.482;19.054;2022-10-31T06:51:34;37.55;;;33.55;;
58758;SDS011;46777;47.482;19.054;2022-10-31T06:54:18;36.15;;;32.40;;
58758;SDS011;46777;47.482;19.054;2022-10-31T06:57:02;38.78;;;33.30;;
58758;SDS011;46777;47.482;19.054;2022-10-31T06:59:46;35.97;;;30.85;;
58758;SDS011;46777;47.482;19.054;2022-10-31T07:02:30;36.00;;;32.15;;
58758;SDS011;46777;47.482;19.054;2022-10-31T07:05:15;34.90;;;31.17;;
58758;SDS011;46777;47.482;19.054;2022-10-31T07:08:00;36.45;;;32.58;;
58758;SDS011;46777;47.482;19.054;2022-10-31T07:10:50;34.05;;;30.38;;
58758;SDS011;46777;47.482;19.054;2022-10-31T07:13:34;37.92;;;33.92;;
58758;SDS011;46777;47.482;19.054;2022-10-31T07:16:19;36.88;;;32.88;;
58758;SDS011;46777;47.482;19.054;2022-10-31T07:19:03;39.20;;;34.00;;
58758;SDS011;46777;47.482;19.054;2022-10-31T07:21:47;36.22;;;32.38;;
58758;SDS011;46777;47.482;19.054;2022-10-31T07:24:31;36.65;;;32.97;;
58758;SDS011;46777;47.482;19.054;2022-10-31T07:27:15;35.40;;;31.70;;
58758;SDS011;46777;47.482;19.054;2022-10-31T07:30:00;36.35;;;31.95;;
58758;SDS011;46777;47.482;19.054;2022-10-31T07:32:44;35.13;;;31.38;;
58758;SDS011;46777;47.482;19.054;2022-10-31T07:35:29;36.55;;;32.10;;
58758;SDS011;46777;47.482;19.054;2022-10-31T07:38:14;35.15;;;31.33;;
58758;SDS011;46777;47.482;19.054;2022-10-31T07:40:58;37.70;;;33.28;;
58758;SDS011;46777;47.482;19.054;2022-10-31T07:43:42;34.85;;;31.17;;
58758;SDS011;46777;47.482;19.054;2022-10-31T07:46:27;37.47;;;32.13;;
58758;SDS011;46777;47.482;19.054;2022-10-31T07:49:11;38.25;;;32.70;;
58758;SDS011;46777;47.482;19.054;2022-10-31T07:51:55;38.63;;;33.30;;
58758;SDS011;46777;47.482;19.054;2022-10-31T07:54:39;40.72;;;34.78;;
58758;SDS011;46777;47.482;19.054;2022-10-31T07:57:23;40.08;;;33.60;;
58758;SDS011;46777;47.482;19.054;2022-10-31T08:00:08;38.80;;;32.33;;
58758;SDS011;46777;47.482;19.054;2022-10-31T08:03:00;38.80;;;33.33;;
58758;SDS011;46777;47.482;19.054;2022-10-31T08:05:45;42.67;;;34.35;;
58758;SDS011;46777;47.482;19.054;2022-10-31T08:08:30;43.20;;;34.75;;
58758;SDS011;46777;47.482;19.054;2022-10-31T08:11:14;45.17;;;34.85;;
58758;SDS011;46777;47.482;19.054;2022-10-31T08:13:58;46.22;;;35.38;;
58758;SDS011;46777;47.482;19.054;2022-10-31T08:16:42;44.67;;;35.33;;
58758;SDS011;46777;47.482;19.054;2022-10-31T08:19:26;45.97;;;36.42;;
58758;SDS011;46777;47.482;19.054;2022-10-31T08:22:11;43.80;;;34.25;;
58758;SDS011;46777;47.482;19.054;2022-10-31T08:24:55;49.90;;;38.22;;
58758;SDS011;46777;47.482;19.054;2022-10-31T08:27:39;47.35;;;36.40;;
58758;SDS011;46777;47.482;19.054;2022-10-31T08:30:24;48.30;;;38.75;;
58758;SDS011;46777;47.482;19.054;2022-10-31T08:33:10;48.20;;;36.30;;
58758;SDS011;46777;47.482;19.054;2022-10-31T08:35:57;49.97;;;36.45;;
58758;SDS011;46777;47.482;19.054;2022-10-31T08:38:41;46.97;;;36.75;;
58758;SDS011;46777;47.482;19.054;2022-10-31T08:41:25;45.78;;;37.13;;
58758;SDS011;46777;47.482;19.054;2022-10-31T08:44:10;44.35;;;34.78;;
58758;SDS011;46777;47.482;19.054;2022-10-31T08:46:54;48.03;;;35.30;;
58758;SDS011;46777;47.482;19.054;2022-10-31T08:49:38;42.88;;;35.50;;
58758;SDS011;46777;47.482;19.054;2022-10-31T08:52:23;41.50;;;34.50;;
58758;SDS011;46777;47.482;19.054;2022-10-31T08:55:08;42.67;;;36.20;;
58758;SDS011;46777;47.482;19.054;2022-10-31T08:57:56;44.65;;;35.38;;
58758;SDS011;46777;47.482;19.054;2022-10-31T09:00:41;46.83;;;35.50;;
58758;SDS011;46777;47.482;19.054;2022-10-31T09:03:27;45.40;;;33.75;;
58758;SDS011;46777;47.482;19.054;2022-10-31T09:06:11;41.65;;;33.28;;
58758;SDS011;46777;47.482;19.054;2022-10-31T09:08:56;39.92;;;31.33;;
58758;SDS011;46777;47.482;19.054;2022-10-31T09:11:40;43.20;;;33.58;;
58758;SDS011;46777;47.482;19.054;2022-10-31T09:14:24;41.88;;;33.20;;
58758;SDS011;46777;47.482;19.054;2022-10-31T09:17:08;38.90;;;32.92;;
58758;SDS011;46777;47.482;19.054;2022-10-31T09:19:53;41.58;;;32.22;;
58758;SDS011;46777;47.482;19.054;2022-10-31T09:22:37;39.08;;;32.30;;
58758;SDS011;46777;47.482;19.054;2022-10-31T09:25:21;38.42;;;33.25;;
58758;SDS011;46777;47.482;19.054;2022-10-31T09:28:06;40.83;;;34.10;;
58758;SDS011;46777;47.482;19.054;2022-10-31T09:30:51;38.88;;;32.35;;
58758;SDS011;46777;47.482;19.054;2022-10-31T09:33:36;38.90;;;32.83;;
58758;SDS011;46777;47.482;19.054;2022-10-31T09:36:21;40.13;;;32.53;;
58758;SDS011;46777;47.482;19.054;2022-10-31T09:39:05;37.53;;;30.10;;
58758;SDS011;46777;47.482;19.054;2022-10-31T09:42:35;39.45;;;32.63;;
58758;SDS011;46777;47.482;19.054;2022-10-31T09:47:51;38.55;;;32.10;;
58758;SDS011;46777;47.482;19.054;2022-10-31T09:50:46;34.30;;;30.67;;
58758;SDS011;46777;47.482;19.054;2022-10-31T09:56:21;32.58;;;29.05;;
58758;SDS011;46777;47.482;19.054;2022-10-31T09:59:05;32.90;;;29.25;;
58758;SDS011;46777;47.482;19.054;2022-10-31T10:01:56;34.63;;;30.27;;
58758;SDS011;46777;47.482;19.054;2022-10-31T10:04:46;34.28;;;29.95;;
58758;SDS011;46777;47.482;19.054;2022-10-31T10:10:54;33.92;;;29.92;;
58758;SDS011;46777;47.482;19.054;2022-10-31T10:13:46;34.90;;;30.80;;
58758;SDS011;46777;47.482;19.054;2022-10-31T10:25:07;35.25;;;29.95;;
58758;SDS011;46777;47.482;19.054;2022-10-31T10:30:41;31.98;;;28.55;;
58758;SDS011;46777;47.482;19.054;2022-10-31T10:33:31;32.72;;;28.90;;
58758;SDS011;46777;47.482;19.054;2022-10-31T10:36:22;35.33;;;30.55;;
58758;SDS011;46777;47.482;19.054;2022-10-31T10:42:00;34.97;;;31.33;;
58758;SDS011;46777;47.482;19.054;2022-10-31T10:45:14;32.55;;;29.10;;
58758;SDS011;46777;47.482;19.054;2022-10-31T10:48:25;35.63;;;30.05;;
58758;SDS011;46777;47.482;19.054;2022-10-31T10:51:19;34.65;;;29.88;;
58758;SDS011;46777;47.482;19.054;2022-10-31T10:56:51;32.85;;;29.55;;
58758;SDS011;46777;47.482;19.054;2022-10-31T10:59:38;31.20;;;27.95;;
58758;SDS011;46777;47.482;19.054;2022-10-31T11:02:26;31.45;;;28.05;;
58758;SDS011;46777;47.482;19.054;2022-10-31T11:05:14;30.73;;;27.63;;
58758;SDS011;46777;47.482;19.054;2022-10-31T11:08:01;29.13;;;26.20;;
58758;SDS011;46777;47.482;19.054;2022-10-31T11:10:55;30.30;;;27.20;;
58758;SDS011;46777;47.482;19.054;2022-10-31T11:13:40;30.25;;;27.23;;
58758;SDS011;46777;47.482;19.054;2022-10-31T11:19:17;31.48;;;28.17;;
58758;SDS011;46777;47.482;19.054;2022-10-31T11:22:07;28.60;;;25.90;;
58758;SDS011;46777;47.482;19.054;2022-10-31T11:24:52;30.52;;;27.70;;
58758;SDS011;46777;47.482;19.054;2022-10-31T11:27:37;30.52;;;27.55;;
58758;SDS011;46777;47.482;19.054;2022-10-31T11:30:21;31.00;;;27.75;;
58758;SDS011;46777;47.482;19.054;2022-10-31T11:33:05;29.60;;;26.70;;
58758;SDS011;46777;47.482;19.054;2022-10-31T11:35:50;29.08;;;26.27;;
58758;SDS011;46777;47.482;19.054;2022-10-31T11:38:35;29.70;;;26.77;;
58758;SDS011;46777;47.482;19.054;2022-10-31T11:41:25;28.15;;;25.55;;
58758;SDS011;46777;47.482;19.054;2022-10-31T11:46:54;27.65;;;24.75;;
58758;SDS011;46777;47.482;19.054;2022-10-31T11:49:44;28.65;;;25.85;;
58758;SDS011;46777;47.482;19.054;2022-10-31T11:52:30;28.55;;;25.65;;
58758;SDS011;46777;47.482;19.054;2022-10-31T11:55:16;28.38;;;25.77;;
58758;SDS011;46777;47.482;19.054;2022-10-31T11:58:01;27.70;;;24.95;;
58758;SDS011;46777;47.482;19.054;2022-10-31T12:00:48;27.38;;;24.70;;
58758;SDS011;46777;47.482;19.054;2022-10-31T12:03:36;26.85;;;24.25;;
58758;SDS011;46777;47.482;19.054;2022-10-31T12:06:27;27.20;;;24.55;;
58758;SDS011;46777;47.482;19.054;2022-10-31T12:09:17;26.33;;;23.73;;
58758;SDS011;46777;47.482;19.054;2022-10-31T12:23:48;25.52;;;23.08;;
58758;SDS011;46777;47.482;19.054;2022-10-31T12:26:44;27.17;;;24.57;;
58758;SDS011;46777;47.482;19.054;2022-10-31T12:32:41;28.70;;;26.00;;
58758;SDS011;46777;47.482;19.054;2022-10-31T12:35:34;28.55;;;25.85;;
58758;SDS011;46777;47.482;19.054;2022-10-31T12:44:05;29.13;;;26.45;;
58758;SDS011;46777;47.482;19.054;2022-10-31T12:55:37;28.35;;;25.50;;
58758;SDS011;46777;47.482;19.054;2022-10-31T12:58:37;27.85;;;25.05;;
58758;SDS011;46777;47.482;19.054;2022-10-31T13:01:33;28.40;;;25.70;;
58758;SDS011;46777;47.482;19.054;2022-10-31T13:04:21;27.70;;;24.90;;
58758;SDS011;46777;47.482;19.054;2022-10-31T13:07:09;27.05;;;24.45;;
58758;SDS011;46777;47.482;19.054;2022-10-31T13:09:58;27.40;;;24.70;;
58758;SDS011;46777;47.482;19.054;2022-10-31T13:12:45;27.95;;;25.27;;
58758;SDS011;46777;47.482;19.054;2022-10-31T13:15:32;27.70;;;25.10;;
58758;SDS011;46777;47.482;19.054;2022-10-31T13:18:32;27.73;;;24.95;;
58758;SDS011;46777;47.482;19.054;2022-10-31T13:21:25;26.77;;;24.17;;
58758;SDS011;46777;47.482;19.054;2022-10-31T13:24:12;25.98;;;23.63;;
58758;SDS011;46777;47.482;19.054;2022-10-31T13:26:58;27.67;;;25.08;;
58758;SDS011;46777;47.482;19.054;2022-10-31T13:29:56;26.73;;;24.33;;
58758;SDS011;46777;47.482;19.054;2022-10-31T13:33:17;26.95;;;24.50;;
58758;SDS011;46777;47.482;19.054;2022-10-31T13:38:48;26.27;;;23.88;;
58758;SDS011;46777;47.482;19.054;2022-10-31T13:44:19;28.50;;;25.70;;
58758;SDS011;46777;47.482;19.054;2022-10-31T13:50:22;26.20;;;23.85;;
58758;SDS011;46777;47.482;19.054;2022-10-31T13:53:18;27.27;;;24.67;;
58758;SDS011;46777;47.482;19.054;2022-10-31T13:56:04;28.65;;;25.92;;
58758;SDS011;46777;47.482;19.054;2022-10-31T14:01:48;27.70;;;25.30;;
58758;SDS011;46777;47.482;19.054;2022-10-31T14:04:36;27.70;;;25.13;;
58758;SDS011;46777;47.482;19.054;2022-10-31T14:07:21;26.73;;;24.20;;
58758;SDS011;46777;47.482;19.054;2022-10-31T14:10:21;28.15;;;25.48;;
58758;SDS011;46777;47.482;19.054;2022-10-31T14:16:04;26.80;;;24.40;;
58758;SDS011;46777;47.482;19.054;2022-10-31T14:18:59;27.80;;;25.30;;
58758;SDS011;46777;47.482;19.054;2022-10-31T14:21:47;26.13;;;23.63;;
58758;SDS011;46777;47.482;19.054;2022-10-31T14:24:33;25.90;;;23.40;;
58758;SDS011;46777;47.482;19.054;2022-10-31T14:30:13;26.00;;;23.58;;
58758;SDS011;46777;47.482;19.054;2022-10-31T14:33:00;26.65;;;24.13;;
58758;SDS011;46777;47.482;19.054;2022-10-31T14:35:54;26.85;;;24.35;;
58758;SDS011;46777;47.482;19.054;2022-10-31T14:38:43;27.50;;;24.80;;
58758;SDS011;46777;47.482;19.054;2022-10-31T14:41:40;26.30;;;23.85;;
58758;SDS011;46777;47.482;19.054;2022-10-31T14:47:31;27.90;;;25.08;;
58758;SDS011;46777;47.482;19.054;2022-10-31T14:50:25;26.98;;;24.38;;
58758;SDS011;46777;47.482;19.054;2022-10-31T14:53:15;28.95;;;26.05;;
58758;SDS011;46777;47.482;19.054;2022-10-31T14:56:02;29.85;;;27.02;;
58758;SDS011;46777;47.482;19.054;2022-10-31T14:58:46;28.27;;;25.58;;
58758;SDS011;46777;47.482;19.054;2022-10-31T15:01:35;30.05;;;27.23;;
58758;SDS011;46777;47.482;19.054;2022-10-31T15:04:22;30.85;;;27.75;;
58758;SDS011;46777;47.482;19.054;2022-10-31T15:07:17;30.80;;;27.85;;
58758;SDS011;46777;47.482;19.054;2022-10-31T15:12:47;30.52;;;27.52;;
58758;SDS011;46777;47.482;19.054;2022-10-31T15:15:31;31.63;;;28.52;;
58758;SDS011;46777;47.482;19.054;2022-10-31T15:18:17;31.20;;;28.20;;
58758;SDS011;46777;47.482;19.054;2022-10-31T15:21:03;32.92;;;29.63;;
58758;SDS011;46777;47.482;19.054;2022-10-31T15:23:47;33.53;;;30.20;;
58758;SDS011;46777;47.482;19.054;2022-10-31T15:26:35;30.27;;;27.25;;
58758;SDS011;46777;47.482;19.054;2022-10-31T15:29:22;30.80;;;27.77;;
58758;SDS011;46777;47.482;19.054;2022-10-31T15:32:23;32.25;;;29.17;;
58758;SDS011;46777;47.482;19.054;2022-10-31T15:35:08;31.40;;;28.30;;
58758;SDS011;46777;47.482;19.054;2022-10-31T15:37:53;35.95;;;32.47;;
58758;SDS011;46777;47.482;19.054;2022-10-31T15:40:37;31.60;;;28.50;;
58758;SDS011;46777;47.482;19.054;2022-10-31T15:43:22;32.30;;;29.10;;
58758;SDS011;46777;47.482;19.054;2022-10-31T15:46:07;31.17;;;28.13;;
58758;SDS011;46777;47.482;19.054;2022-10-31T15:48:53;31.05;;;27.95;;
58758;SDS011;46777;47.482;19.054;2022-10-31T15:51:37;30.73;;;27.63;;
58758;SDS011;46777;47.482;19.054;2022-10-31T15:54:22;31.77;;;28.67;;
58758;SDS011;46777;47.482;19.054;2022-10-31T15:57:09;34.35;;;30.88;;
58758;SDS011;46777;47.482;19.054;2022-10-31T15:59:54;33.03;;;29.92;;
58758;SDS011;46777;47.482;19.054;2022-10-31T16:02:39;32.20;;;28.85;;
58758;SDS011;46777;47.482;19.054;2022-10-31T16:05:33;33.38;;;30.10;;
58758;SDS011;46777;47.482;19.054;2022-10-31T16:11:24;32.10;;;28.98;;
58758;SDS011;46777;47.482;19.054;2022-10-31T16:16:54;33.63;;;30.27;;
58758;SDS011;46777;47.482;19.054;2022-10-31T16:20:02;34.17;;;30.90;;
58758;SDS011;46777;47.482;19.054;2022-10-31T16:22:46;33.70;;;30.58;;
58758;SDS011;46777;47.482;19.054;2022-10-31T16:25:35;34.35;;;31.02;;
58758;SDS011;46777;47.482;19.054;2022-10-31T16:28:25;33.45;;;30.25;;
58758;SDS011;46777;47.482;19.054;2022-10-31T16:31:12;34.55;;;31.45;;
58758;SDS011;46777;47.482;19.054;2022-10-31T16:34:31;32.60;;;29.52;;
58758;SDS011;46777;47.482;19.054;2022-10-31T16:37:08;31.90;;;28.70;;
58758;SDS011;46777;47.482;19.054;2022-10-31T16:39:52;34.22;;;30.65;;
58758;SDS011;46777;47.482;19.054;2022-10-31T16:42:36;34.55;;;30.98;;
58758;SDS011;46777;47.482;19.054;2022-10-31T16:45:22;35.22;;;31.63;;
58758;SDS011;46777;47.482;19.054;2022-10-31T16:48:11;34.28;;;30.60;;
58758;SDS011;46777;47.482;19.054;2022-10-31T16:50:55;34.05;;;30.55;;
58758;SDS011;46777;47.482;19.054;2022-10-31T16:53:40;33.55;;;29.73;;
58758;SDS011;46777;47.482;19.054;2022-10-31T16:56:26;34.70;;;31.13;;
58758;SDS011;46777;47.482;19.054;2022-10-31T16:59:11;34.70;;;31.08;;
58758;SDS011;46777;47.482;19.054;2022-10-31T17:01:56;33.28;;;29.63;;
58758;SDS011;46777;47.482;19.054;2022-10-31T17:04:40;32.80;;;29.48;;
58758;SDS011;46777;47.482;19.054;2022-10-31T17:07:24;31.55;;;28.20;;
58758;SDS011;46777;47.482;19.054;2022-10-31T17:10:09;35.17;;;28.90;;
58758;SDS011;46777;47.482;19.054;2022-10-31T17:12:53;33.10;;;29.67;;
58758;SDS011;46777;47.482;19.054;2022-10-31T17:15:40;31.88;;;28.58;;
58758;SDS011;46777;47.482;19.054;2022-10-31T17:18:25;30.98;;;27.77;;
58758;SDS011;46777;47.482;19.054;2022-10-31T17:21:12;31.98;;;28.85;;
58758;SDS011;46777;47.482;19.054;2022-10-31T17:23:58;33.17;;;29.77;;
58758;SDS011;46777;47.482;19.054;2022-10-31T17:26:42;32.70;;;29.25;;
58758;SDS011;46777;47.482;19.054;2022-10-31T17:29:27;33.60;;;29.55;;
58758;SDS011;46777;47.482;19.054;2022-10-31T17:32:11;33.05;;;29.55;;
58758;SDS011;46777;47.482;19.054;2022-10-31T17:34:55;34.17;;;30.55;;
58758;SDS011;46777;47.482;19.054;2022-10-31T17:37:40;32.75;;;29.25;;
58758;SDS011;46777;47.482;19.054;2022-10-31T17:40:26;33.17;;;29.25;;
58758;SDS011;46777;47.482;19.054;2022-10-31T17:43:10;33.63;;;29.83;;
58758;SDS011;46777;47.482;19.054;2022-10-31T17:45:57;30.20;;;27.10;;
58758;SDS011;46777;47.482;19.054;2022-10-31T17:48:42;33.20;;;29.73;;
58758;SDS011;46777;47.482;19.054;2022-10-31T17:51:26;31.08;;;27.85;;